^^
Station Historical Data
Daily Summary for March 10, 2018 Units:  Both    English   Metric
« Previous Day
Next Day »
Daily Weekly Monthly Yearly Custom
  High: Low: Average:
Temperature: TemperatureF °F /  -17.8 °C 65.7 °F /  18.7 °C 74 °F /  23.3 °C
Dew Point: DewpointF °F /  -17.8 °C 40.8 °F /  4.9 °C 44.7 °F /  7.1 °C
Humidity: Humidity% 27% 35%
Wind Speed: WindSpeedMPHmph /  0km/h - -12.2mph /  -19.6km/h
Wind Gust: WindSpeedGustMPHmph /  0km/h - -
Wind- -
Pressure: PressureIn in /  0 hPa 29.58 in /  1001.6 hPa -
Precipitation: 0.00 in /  0 mm    
Historical Graphs
 
 
Tabular Data for March 10, 2018
Time Temperature Dew Point Pressure Wind Wind Speed Wind Gust Humidity Rainfall Rate (Hourly) solar Conditions
TemperatureF °F /  -17.8 °C DewpointF °F /  -17.8 °C PressureInin /  0hPa Calm     Humidity% HourlyPrecipInin /  0mm SoftwareType W/m2 Conditions
08:11 65.7 °F /  18.7 °C 45.5 °F /  7.5 °C 29.66in /  1004.3hPa North -999.9mph /  -1609.1km/h -999.0mph /  -1607.7km/h 48% 0.00in /  0mm meteobridge W/m2
08:17 66.7 °F /  19.3 °C 46.4 °F /  8 °C 29.66in /  1004.3hPa Calm     48% 0.00in /  0mm meteobridge W/m2
08:23 67.3 °F /  19.6 °C 46.4 °F /  8 °C 29.66in /  1004.3hPa Calm     47% 0.00in /  0mm meteobridge W/m2
08:30 67.5 °F /  19.7 °C 46.6 °F /  8.1 °C 29.66in /  1004.3hPa Calm     47% 0.00in /  0mm meteobridge W/m2
08:36 67.5 °F /  19.7 °C 47.7 °F /  8.7 °C 29.66in /  1004.3hPa Calm     49% 0.00in /  0mm meteobridge W/m2
08:42 67.6 °F /  19.8 °C 46.8 °F /  8.2 °C 29.67in /  1004.6hPa Calm     47% 0.00in /  0mm meteobridge W/m2
08:48 67.8 °F /  19.9 °C 46.9 °F /  8.3 °C 29.67in /  1004.6hPa SSW 2.0mph /  3.2km/h 3.0mph /  4.8km/h 47% 0.00in /  0mm meteobridge W/m2
08:54 68.2 °F /  20.1 °C 47.7 °F /  8.7 °C 29.67in /  1004.6hPa SSW 0.9mph /  1.4km/h 4.0mph /  6.4km/h 48% 0.00in /  0mm meteobridge W/m2
09:00 68.4 °F /  20.2 °C 47.8 °F /  8.8 °C 29.67in /  1004.6hPa SSW 2.0mph /  3.2km/h 5.0mph /  8km/h 48% 0.00in /  0mm meteobridge W/m2
09:06 68.5 °F /  20.3 °C 48.6 °F /  9.2 °C 29.67in /  1004.6hPa SSE 2.9mph /  4.7km/h 4.0mph /  6.4km/h 49% 0.00in /  0mm meteobridge W/m2
09:12 69.3 °F /  20.7 °C 49.3 °F /  9.6 °C 29.67in /  1004.6hPa South 6.0mph /  9.7km/h 6.0mph /  9.7km/h 49% 0.00in /  0mm meteobridge W/m2
09:19 69.3 °F /  20.7 °C 49.3 °F /  9.6 °C 29.67in /  1004.6hPa South 6.9mph /  11.1km/h 7.0mph /  11.3km/h 49% 0.00in /  0mm meteobridge W/m2
09:25 69.1 °F /  20.6 °C 47.5 °F /  8.6 °C 29.67in /  1004.6hPa SSW 2.9mph /  4.7km/h 4.0mph /  6.4km/h 46% 0.00in /  0mm meteobridge W/m2
09:31 69.8 °F /  21 °C 48.0 °F /  8.9 °C 29.67in /  1004.6hPa South 2.9mph /  4.7km/h 5.0mph /  8km/h 46% 0.00in /  0mm meteobridge W/m2
09:37 70.2 °F /  21.2 °C 46.6 °F /  8.1 °C 29.68in /  1005hPa SSW 2.9mph /  4.7km/h 6.0mph /  9.7km/h 43% 0.00in /  0mm meteobridge W/m2
09:43 70.2 °F /  21.2 °C 46.6 °F /  8.1 °C 29.68in /  1005hPa South 2.9mph /  4.7km/h 4.0mph /  6.4km/h 43% 0.00in /  0mm meteobridge W/m2
09:49 70.7 °F /  21.5 °C 47.1 °F /  8.4 °C 29.68in /  1005hPa SSW 0.9mph /  1.4km/h 3.0mph /  4.8km/h 43% 0.00in /  0mm meteobridge W/m2
09:55 71.2 °F /  21.8 °C 46.9 °F /  8.3 °C 29.68in /  1005hPa South 0.9mph /  1.4km/h 2.0mph /  3.2km/h 42% 0.00in /  0mm meteobridge W/m2
10:02 71.6 °F /  22 °C 47.3 °F /  8.5 °C 29.68in /  1005hPa SSE 0.9mph /  1.4km/h 5.0mph /  8km/h 42% 0.00in /  0mm meteobridge W/m2
10:08 71.8 °F /  22.1 °C 46.2 °F /  7.9 °C 29.68in /  1005hPa South 0.9mph /  1.4km/h 2.0mph /  3.2km/h 40% 0.00in /  0mm meteobridge W/m2
10:14 72.5 °F /  22.5 °C 46.8 °F /  8.2 °C 29.68in /  1005hPa South 2.9mph /  4.7km/h 4.0mph /  6.4km/h 40% 0.00in /  0mm meteobridge W/m2
10:20 72.1 °F /  22.3 °C 47.8 °F /  8.8 °C 29.67in /  1004.6hPa SSE 2.9mph /  4.7km/h 6.0mph /  9.7km/h 42% 0.00in /  0mm meteobridge W/m2
10:26 72.0 °F /  22.2 °C 46.9 °F /  8.3 °C 29.67in /  1004.6hPa SW 4.9mph /  7.9km/h 5.0mph /  8km/h 41% 0.00in /  0mm meteobridge W/m2
10:32 72.0 °F /  22.2 °C 45.7 °F /  7.6 °C 29.67in /  1004.6hPa SSW 2.9mph /  4.7km/h 4.0mph /  6.4km/h 39% 0.00in /  0mm meteobridge W/m2
10:38 72.7 °F /  22.6 °C 46.9 °F /  8.3 °C 29.67in /  1004.6hPa ESE 6.0mph /  9.7km/h 9.0mph /  14.5km/h 40% 0.00in /  0mm meteobridge W/m2
10:44 72.9 °F /  22.7 °C 46.4 °F /  8 °C 29.67in /  1004.6hPa SSE 2.9mph /  4.7km/h 3.0mph /  4.8km/h 39% 0.00in /  0mm meteobridge W/m2
10:50 73.6 °F /  23.1 °C 47.1 °F /  8.4 °C 29.67in /  1004.6hPa SSE 4.9mph /  7.9km/h 6.0mph /  9.7km/h 39% 0.00in /  0mm meteobridge W/m2
10:57 73.4 °F /  23 °C 45.5 °F /  7.5 °C 29.67in /  1004.6hPa NW 6.0mph /  9.7km/h 6.0mph /  9.7km/h 37% 0.00in /  0mm meteobridge W/m2
11:03 74.3 °F /  23.5 °C 46.4 °F /  8 °C 29.67in /  1004.6hPa SSW 2.9mph /  4.7km/h 4.0mph /  6.4km/h 37% 0.00in /  0mm meteobridge W/m2
11:09 74.5 °F /  23.6 °C 47.8 °F /  8.8 °C 29.67in /  1004.6hPa SSE 4.0mph /  6.4km/h 11.0mph /  17.7km/h 39% 0.00in /  0mm meteobridge W/m2
11:15 74.5 °F /  23.6 °C 47.1 °F /  8.4 °C 29.67in /  1004.6hPa SW 4.9mph /  7.9km/h 7.0mph /  11.3km/h 38% 0.00in /  0mm meteobridge W/m2
11:21 74.8 °F /  23.8 °C 46.0 °F /  7.8 °C 29.67in /  1004.6hPa South 10.1mph /  16.3km/h 13.0mph /  20.9km/h 36% 0.00in /  0mm meteobridge W/m2
11:27 74.7 °F /  23.7 °C 45.1 °F /  7.3 °C 29.67in /  1004.6hPa South 8.9mph /  14.3km/h 13.0mph /  20.9km/h 35% 0.00in /  0mm meteobridge W/m2
11:33 74.1 °F /  23.4 °C 45.5 °F /  7.5 °C 29.67in /  1004.6hPa South 6.0mph /  9.7km/h 15.0mph /  24.1km/h 36% 0.00in /  0mm meteobridge W/m2
11:40 74.7 °F /  23.7 °C 45.1 °F /  7.3 °C 29.66in /  1004.3hPa South 8.1mph /  13km/h 13.0mph /  20.9km/h 35% 0.00in /  0mm meteobridge W/m2
11:46 74.7 °F /  23.7 °C 46.6 °F /  8.1 °C 29.66in /  1004.3hPa South 4.0mph /  6.4km/h 6.0mph /  9.7km/h 37% 0.00in /  0mm meteobridge W/m2
11:52 75.2 °F /  24 °C 46.4 °F /  8 °C 29.66in /  1004.3hPa SSE 2.9mph /  4.7km/h 11.0mph /  17.7km/h 36% 0.00in /  0mm meteobridge W/m2
11:58 75.7 °F /  24.3 °C 46.9 °F /  8.3 °C 29.65in /  1003.9hPa SSW 6.9mph /  11.1km/h 14.0mph /  22.5km/h 36% 0.00in /  0mm meteobridge W/m2
12:04 75.6 °F /  24.2 °C 47.5 °F /  8.6 °C 29.65in /  1003.9hPa SSE 2.9mph /  4.7km/h 13.0mph /  20.9km/h 37% 0.00in /  0mm meteobridge W/m2
12:10 75.4 °F /  24.1 °C 45.1 °F /  7.3 °C 29.65in /  1003.9hPa SSW 8.1mph /  13km/h 14.0mph /  22.5km/h 34% 0.00in /  0mm meteobridge W/m2
12:16 75.2 °F /  24 °C 47.1 °F /  8.4 °C 29.65in /  1003.9hPa SSE 6.9mph /  11.1km/h 13.0mph /  20.9km/h 37% 0.00in /  0mm meteobridge W/m2
12:23 75.9 °F /  24.4 °C 47.1 °F /  8.4 °C 29.65in /  1003.9hPa SSE 4.9mph /  7.9km/h 14.0mph /  22.5km/h 36% 0.00in /  0mm meteobridge W/m2
12:29 75.6 °F /  24.2 °C 45.1 °F /  7.3 °C 29.64in /  1003.6hPa SSE 8.9mph /  14.3km/h 12.0mph /  19.3km/h 34% 0.00in /  0mm meteobridge W/m2
12:35 75.9 °F /  24.4 °C 45.5 °F /  7.5 °C 29.63in /  1003.3hPa SSE 8.1mph /  13km/h 13.0mph /  20.9km/h 34% 0.00in /  0mm meteobridge W/m2
12:41 76.1 °F /  24.5 °C 45.7 °F /  7.6 °C 29.63in /  1003.3hPa South 4.9mph /  7.9km/h 16.0mph /  25.7km/h 34% 0.00in /  0mm meteobridge W/m2
12:47 75.9 °F /  24.4 °C 46.2 °F /  7.9 °C 29.63in /  1003.3hPa SSW 4.0mph /  6.4km/h 13.0mph /  20.9km/h 35% 0.00in /  0mm meteobridge W/m2
12:53 76.1 °F /  24.5 °C 45.7 °F /  7.6 °C 29.63in /  1003.3hPa South 8.1mph /  13km/h 11.0mph /  17.7km/h 34% 0.00in /  0mm meteobridge W/m2
13:00 77.2 °F /  25.1 °C 45.9 °F /  7.7 °C 29.63in /  1003.3hPa South 6.0mph /  9.7km/h 14.0mph /  22.5km/h 33% 0.00in /  0mm meteobridge W/m2
13:06 77.4 °F /  25.2 °C 46.0 °F /  7.8 °C 29.62in /  1002.9hPa South 8.9mph /  14.3km/h 14.0mph /  22.5km/h 33% 0.00in /  0mm meteobridge W/m2
13:12 77.5 °F /  25.3 °C 46.2 °F /  7.9 °C 29.62in /  1002.9hPa SSW 8.9mph /  14.3km/h 13.0mph /  20.9km/h 33% 0.00in /  0mm meteobridge W/m2
13:18 77.4 °F /  25.2 °C 44.4 °F /  6.9 °C 29.62in /  1002.9hPa ESE 4.0mph /  6.4km/h 9.0mph /  14.5km/h 31% 0.00in /  0mm meteobridge W/m2
13:24 77.5 °F /  25.3 °C 46.2 °F /  7.9 °C 29.62in /  1002.9hPa SE 4.0mph /  6.4km/h 6.0mph /  9.7km/h 33% 0.00in /  0mm meteobridge W/m2
13:30 77.4 °F /  25.2 °C 43.5 °F /  6.4 °C 29.62in /  1002.9hPa East 6.9mph /  11.1km/h 14.0mph /  22.5km/h 30% 0.00in /  0mm meteobridge W/m2
13:36 76.5 °F /  24.7 °C 43.5 °F /  6.4 °C 29.62in /  1002.9hPa East 2.9mph /  4.7km/h 13.0mph /  20.9km/h 31% 0.00in /  0mm meteobridge W/m2
13:43 77.0 °F /  25 °C 44.1 °F /  6.7 °C 29.61in /  1002.6hPa SSW 2.9mph /  4.7km/h 11.0mph /  17.7km/h 31% 0.00in /  0mm meteobridge W/m2
13:49 77.5 °F /  25.3 °C 46.9 °F /  8.3 °C 29.61in /  1002.6hPa SSE 4.9mph /  7.9km/h 10.0mph /  16.1km/h 34% 0.00in /  0mm meteobridge W/m2
13:55 77.9 °F /  25.5 °C 45.7 °F /  7.6 °C 29.61in /  1002.6hPa South 4.9mph /  7.9km/h 7.0mph /  11.3km/h 32% 0.00in /  0mm meteobridge W/m2
14:01 78.1 °F /  25.6 °C 45.0 °F /  7.2 °C 29.61in /  1002.6hPa South 4.9mph /  7.9km/h 14.0mph /  22.5km/h 31% 0.00in /  0mm meteobridge W/m2
14:07 78.1 °F /  25.6 °C 44.1 °F /  6.7 °C 29.61in /  1002.6hPa SSW 13.0mph /  20.9km/h 15.0mph /  24.1km/h 30% 0.00in /  0mm meteobridge W/m2
14:13 78.1 °F /  25.6 °C 45.0 °F /  7.2 °C 29.61in /  1002.6hPa SSE 8.9mph /  14.3km/h 10.0mph /  16.1km/h 31% 0.00in /  0mm meteobridge W/m2
14:20 78.6 °F /  25.9 °C 43.7 °F /  6.5 °C 29.61in /  1002.6hPa SSE 8.9mph /  14.3km/h 11.0mph /  17.7km/h 29% 0.00in /  0mm meteobridge W/m2
14:26 78.4 °F /  25.8 °C 46.2 °F /  7.9 °C 29.61in /  1002.6hPa SSE 11.0mph /  17.7km/h 14.0mph /  22.5km/h 32% 0.00in /  0mm meteobridge W/m2
14:32 77.4 °F /  25.2 °C 43.5 °F /  6.4 °C 29.60in /  1002.3hPa SSE 4.9mph /  7.9km/h 11.0mph /  17.7km/h 30% 0.00in /  0mm meteobridge W/m2
14:38 78.4 °F /  25.8 °C 43.5 °F /  6.4 °C 29.60in /  1002.3hPa South 10.1mph /  16.3km/h 14.0mph /  22.5km/h 29% 0.00in /  0mm meteobridge W/m2
14:44 78.6 °F /  25.9 °C 44.6 °F /  7 °C 29.60in /  1002.3hPa South 8.9mph /  14.3km/h 19.0mph /  30.6km/h 30% 0.00in /  0mm meteobridge W/m2
14:50 78.6 °F /  25.9 °C 42.8 °F /  6 °C 29.60in /  1002.3hPa SSE 4.9mph /  7.9km/h 13.0mph /  20.9km/h 28% 0.00in /  0mm meteobridge W/m2
14:56 77.9 °F /  25.5 °C 42.3 °F /  5.7 °C 29.60in /  1002.3hPa SSE 4.9mph /  7.9km/h 14.0mph /  22.5km/h 28% 0.00in /  0mm meteobridge W/m2
15:02 78.1 °F /  25.6 °C 42.3 °F /  5.7 °C 29.59in /  1001.9hPa South 4.9mph /  7.9km/h 15.0mph /  24.1km/h 28% 0.00in /  0mm meteobridge W/m2
15:09 77.4 °F /  25.2 °C 40.8 °F /  4.9 °C 29.59in /  1001.9hPa SW 11.0mph /  17.7km/h 13.0mph /  20.9km/h 27% 0.00in /  0mm meteobridge W/m2
15:15 77.5 °F /  25.3 °C 41.0 °F /  5 °C 29.59in /  1001.9hPa South 11.0mph /  17.7km/h 15.0mph /  24.1km/h 27% 0.00in /  0mm meteobridge W/m2
15:21 77.9 °F /  25.5 °C 43.2 °F /  6.2 °C 29.59in /  1001.9hPa South 6.9mph /  11.1km/h 10.0mph /  16.1km/h 29% 0.00in /  0mm meteobridge W/m2
15:27 79.2 °F /  26.2 °C 43.2 °F /  6.2 °C 29.59in /  1001.9hPa South 12.1mph /  19.5km/h 16.0mph /  25.7km/h 28% 0.00in /  0mm meteobridge W/m2
15:33 78.3 °F /  25.7 °C 43.3 °F /  6.3 °C 29.59in /  1001.9hPa SSE 10.1mph /  16.3km/h 18.0mph /  29km/h 29% 0.00in /  0mm meteobridge W/m2
15:39 78.3 °F /  25.7 °C 41.5 °F /  5.3 °C 29.59in /  1001.9hPa SSW 4.9mph /  7.9km/h 11.0mph /  17.7km/h 27% 0.00in /  0mm meteobridge W/m2
15:45 78.1 °F /  25.6 °C 44.1 °F /  6.7 °C 29.59in /  1001.9hPa SE 6.9mph /  11.1km/h 15.0mph /  24.1km/h 30% 0.00in /  0mm meteobridge W/m2
15:51 78.3 °F /  25.7 °C 41.5 °F /  5.3 °C 29.59in /  1001.9hPa South 8.9mph /  14.3km/h 15.0mph /  24.1km/h 27% 0.00in /  0mm meteobridge W/m2
15:57 78.3 °F /  25.7 °C 42.4 °F /  5.8 °C 29.59in /  1001.9hPa South 8.9mph /  14.3km/h 14.0mph /  22.5km/h 28% 0.00in /  0mm meteobridge W/m2
16:03 78.1 °F /  25.6 °C 44.1 °F /  6.7 °C 29.59in /  1001.9hPa SSE 6.0mph /  9.7km/h 12.0mph /  19.3km/h 30% 0.00in /  0mm meteobridge W/m2
16:09 78.3 °F /  25.7 °C 43.3 °F /  6.3 °C 29.59in /  1001.9hPa SSE 2.9mph /  4.7km/h 13.0mph /  20.9km/h 29% 0.00in /  0mm meteobridge W/m2
16:15 78.6 °F /  25.9 °C 41.9 °F /  5.5 °C 29.59in /  1001.9hPa SSW 6.0mph /  9.7km/h 8.0mph /  12.9km/h 27% 0.00in /  0mm meteobridge W/m2
16:21 78.3 °F /  25.7 °C 44.2 °F /  6.8 °C 29.59in /  1001.9hPa SSE 10.1mph /  16.3km/h 12.0mph /  19.3km/h 30% 0.00in /  0mm meteobridge W/m2
16:27 78.4 °F /  25.8 °C 41.7 °F /  5.4 °C 29.59in /  1001.9hPa South 6.0mph /  9.7km/h 14.0mph /  22.5km/h 27% 0.00in /  0mm meteobridge W/m2
16:33 78.1 °F /  25.6 °C 44.1 °F /  6.7 °C 29.59in /  1001.9hPa SSE 8.9mph /  14.3km/h 13.0mph /  20.9km/h 30% 0.00in /  0mm meteobridge W/m2
16:39 77.7 °F /  25.4 °C 43.9 °F /  6.6 °C 29.59in /  1001.9hPa SSE 13.0mph /  20.9km/h 13.0mph /  20.9km/h 30% 0.00in /  0mm meteobridge W/m2
16:45 78.1 °F /  25.6 °C 41.4 °F /  5.2 °C 29.59in /  1001.9hPa SSE 2.9mph /  4.7km/h 10.0mph /  16.1km/h 27% 0.00in /  0mm meteobridge W/m2
16:51 78.6 °F /  25.9 °C 43.7 °F /  6.5 °C 29.58in /  1001.6hPa SSE 6.9mph /  11.1km/h 16.0mph /  25.7km/h 29% 0.00in /  0mm meteobridge W/m2
16:58 77.2 °F /  25.1 °C 43.3 °F /  6.3 °C 29.58in /  1001.6hPa SSE 6.0mph /  9.7km/h 10.0mph /  16.1km/h 30% 0.00in /  0mm meteobridge W/m2
17:04 77.4 °F /  25.2 °C 44.4 °F /  6.9 °C 29.59in /  1001.9hPa South 10.1mph /  16.3km/h 14.0mph /  22.5km/h 31% 0.00in /  0mm meteobridge W/m2
17:10 77.0 °F /  25 °C 45.0 °F /  7.2 °C 29.58in /  1001.6hPa South 4.9mph /  7.9km/h 6.0mph /  9.7km/h 32% 0.00in /  0mm meteobridge W/m2
17:16 76.8 °F /  24.9 °C 43.9 °F /  6.6 °C 29.59in /  1001.9hPa South 10.1mph /  16.3km/h 13.0mph /  20.9km/h 31% 0.00in /  0mm meteobridge W/m2
17:22 74.7 °F /  23.7 °C 44.4 °F /  6.9 °C 29.59in /  1001.9hPa South 8.9mph /  14.3km/h 12.0mph /  19.3km/h 34% 0.00in /  0mm meteobridge W/m2
17:28 74.8 °F /  23.8 °C 44.6 °F /  7 °C 29.59in /  1001.9hPa SSE 4.0mph /  6.4km/h 11.0mph /  17.7km/h 34% 0.00in /  0mm meteobridge W/m2
17:34 75.0 °F /  23.9 °C 43.9 °F /  6.6 °C 29.59in /  1001.9hPa South 6.9mph /  11.1km/h 13.0mph /  20.9km/h 33% 0.00in /  0mm meteobridge W/m2
17:40 75.0 °F /  23.9 °C 43.9 °F /  6.6 °C 29.59in /  1001.9hPa SE 4.0mph /  6.4km/h 13.0mph /  20.9km/h 33% 0.00in /  0mm meteobridge W/m2
17:46 75.2 °F /  24 °C 45.7 °F /  7.6 °C 29.59in /  1001.9hPa South 6.0mph /  9.7km/h 10.0mph /  16.1km/h 35% 0.00in /  0mm meteobridge W/m2
17:52 75.2 °F /  24 °C 44.1 °F /  6.7 °C 29.59in /  1001.9hPa SSW 6.9mph /  11.1km/h 9.0mph /  14.5km/h 33% 0.00in /  0mm meteobridge W/m2
17:58 75.4 °F /  24.1 °C 45.1 °F /  7.3 °C 29.59in /  1001.9hPa SSE 6.0mph /  9.7km/h 13.0mph /  20.9km/h 34% 0.00in /  0mm meteobridge W/m2
18:04 75.4 °F /  24.1 °C 43.5 °F /  6.4 °C 29.59in /  1001.9hPa South 8.9mph /  14.3km/h 15.0mph /  24.1km/h 32% 0.00in /  0mm meteobridge W/m2
18:10 75.0 °F /  23.9 °C 44.8 °F /  7.1 °C 29.59in /  1001.9hPa SSE 2.9mph /  4.7km/h 12.0mph /  19.3km/h 34% 0.00in /  0mm meteobridge W/m2
18:16 74.5 °F /  23.6 °C 44.2 °F /  6.8 °C 29.60in /  1002.3hPa South 12.1mph /  19.5km/h 14.0mph /  22.5km/h 34% 0.00in /  0mm meteobridge W/m2
18:23 73.8 °F /  23.2 °C 43.7 °F /  6.5 °C 29.60in /  1002.3hPa South 6.0mph /  9.7km/h 12.0mph /  19.3km/h 34% 0.00in /  0mm meteobridge W/m2
18:29 73.6 °F /  23.1 °C 43.5 °F /  6.4 °C 29.60in /  1002.3hPa SSE 6.0mph /  9.7km/h 10.0mph /  16.1km/h 34% 0.00in /  0mm meteobridge W/m2
18:35 73.0 °F /  22.8 °C 43.0 °F /  6.1 °C 29.60in /  1002.3hPa South 6.0mph /  9.7km/h 11.0mph /  17.7km/h 34% 0.00in /  0mm meteobridge W/m2
18:41 72.7 °F /  22.6 °C 43.5 °F /  6.4 °C 29.61in /  1002.6hPa South 17.0mph /  27.4km/h 17.0mph /  27.4km/h 35% 0.00in /  0mm meteobridge W/m2
18:45 72.3 °F /  22.4 °C 43.2 °F /  6.2 °C 29.60in /  1002.3hPa South 8.9mph /  14.3km/h 11.0mph /  17.7km/h 35% 0.00in /  0mm meteobridge W/m2
18:51 72.0 °F /  22.2 °C 43.5 °F /  6.4 °C 29.61in /  1002.6hPa South 13.0mph /  20.9km/h 14.0mph /  22.5km/h 36% 0.00in /  0mm meteobridge W/m2
18:57 71.1 °F /  21.7 °C 44.2 °F /  6.8 °C 29.61in /  1002.6hPa South 6.0mph /  9.7km/h 13.0mph /  20.9km/h 38% 0.00in /  0mm meteobridge W/m2
19:03 71.1 °F /  21.7 °C 44.2 °F /  6.8 °C 29.61in /  1002.6hPa SSE 8.9mph /  14.3km/h 9.0mph /  14.5km/h 38% 0.00in /  0mm meteobridge W/m2
19:09 71.1 °F /  21.7 °C 44.2 °F /  6.8 °C 29.61in /  1002.6hPa SSE 8.9mph /  14.3km/h -999.0mph /  -1607.7km/h 38% 0.00in /  0mm meteobridge W/m2
19:16 71.1 °F /  21.7 °C 44.2 °F /  6.8 °C 29.62in /  1002.9hPa North -999.9mph /  -1609.1km/h -999.0mph /  -1607.7km/h 38% 0.00in /  0mm meteobridge W/m2
Regenstein, Windhoek, Namibia
Compliments of Weather Underground - 2.5 mb